Aérodrome :
LOGIN :

S'inscrire | Disclaimer

   EN    FR    IT 

 










Légende :    VFR   VFR Marginal   IFR   IFR Intensif   IFR Très Intensif
Visi : 
Plafond : 
>= 8 km
>= 3000ft
5 à 8 km
1000 à 3000 ft
1500m à 5 km
500 à 1000 ft
800 à 1500m
200 à 500 ft
< 800m
< 200 ft
Symboles :   Orages  Brouillard  Fortes neiges  Fortes précipitations  Vent > 20 kt
SIGMETs :   Divers  Orages  Givrage  Turbulence  Onde Orograph.  Cendres Volcan.






- Altitude de l'aérodrome : 17 ft
- Code IATA : GRQ


EHGG - Groningen Eelde

DERNIER METAR :
  • 190525Z AUTO 27011KT 240V300 9999 NSC 05/01 Q1010 REDZ TEMPO 27015G25KT 5000 SHRA SCT020CB

METARs EXPIRÉS :
  • 190455Z AUTO 26010KT 230V300 9999 SCT022 BKN049 05/02 Q1010
  • 190425Z AUTO 26009KT 230V290 9999 FEW025 05/02 Q1009
  • 190355Z AUTO 26009KT 9999 NSC 05/02 Q1009
  • 190325Z AUTO 26010KT 230V300 9999 NSC 05/03 Q1008
  • 190255Z AUTO 23008KT 9999 FEW021 SCT026 BKN049 04/03 Q1008
  • 190225Z AUTO 24010KT 210V280 9999 FEW008 SCT031 BKN042 05/04 Q1008

TAF TAF EHGG
Valide du 19 à 06h jusqu'au 20 à 12h UTC


190458Z 1906/2012 27014KT 9999 SCT040
PROB40
TEMPO 1906/1911 28015G25KT 5000 SHRA SHRAGS SCT020CB
BECMG 1915/1918 24010KT
BECMG 1918/1921 20010KT
BECMG 1923/2002 4000 RADZ BKN007
BECMG 2007/2010 9999 NSW BKN014
PROB40
TEMPO 2010/2012 7000 -RADZ



MET'MAP, la Météo Aéronautique d'un coup d'oeil ! - Copyright ORBIFLY Décembre 2007 - Disclaimer

ORBIFLY MET'MAP TEAM :

Programmation & Développement : Alexandra Zaïnal
Sur une idée originale de : Baudouin d'Aumeries
Assistance à la programmation : Marc-Olivier Méhu
Soutien technique & logistique : Manuel Goepfert

Contact : metmap@orbifly.com




SOURCES & CREDITS :

   NOAA